createdAt,value
2023-05-24T00:02:15.709Z,8.69
2023-05-24T00:04:42.686Z,8.68
2023-05-24T00:07:09.894Z,8.62
2023-05-24T00:09:36.777Z,8.60
2023-05-24T00:12:03.620Z,8.59
2023-05-24T00:14:30.511Z,8.57
2023-05-24T00:16:57.743Z,8.60
2023-05-24T00:19:24.865Z,8.60
2023-05-24T00:21:51.742Z,8.48
2023-05-24T00:24:18.439Z,8.52
2023-05-24T00:26:45.619Z,8.50
2023-05-24T00:29:12.574Z,8.44
2023-05-24T00:31:39.338Z,8.47
2023-05-24T00:34:06.636Z,8.51
2023-05-24T00:36:34.051Z,8.44
2023-05-24T00:39:00.947Z,8.49
2023-05-24T00:41:27.696Z,8.52
2023-05-24T00:43:54.462Z,8.51
2023-05-24T00:46:33.167Z,8.55
2023-05-24T00:49:01.537Z,8.63
2023-05-24T00:51:28.724Z,8.67
2023-05-24T00:53:56.125Z,8.37
2023-05-24T00:56:23.572Z,8.67
2023-05-24T00:58:54.689Z,8.52
2023-05-24T01:01:25.817Z,8.64
2023-05-24T01:03:54.558Z,8.67
2023-05-24T01:06:21.986Z,8.67
2023-05-24T01:09:20.386Z,8.68
2023-05-24T01:12:13.333Z,8.69
2023-05-24T01:14:49.254Z,8.75
2023-05-24T01:17:24.141Z,8.72
2023-05-24T01:20:02.420Z,8.74
2023-05-24T01:22:53.613Z,8.77
2023-05-24T01:25:37.308Z,8.80
2023-05-24T01:28:04.459Z,8.80
2023-05-24T01:30:31.284Z,8.78
2023-05-24T01:32:58.051Z,8.61
2023-05-24T01:35:24.693Z,8.72
2023-05-24T01:37:51.332Z,8.65
2023-05-24T01:40:18.386Z,8.68
2023-05-24T01:42:52.413Z,8.66
2023-05-24T01:45:37.354Z,8.66
2023-05-24T01:48:25.707Z,8.68
2023-05-24T01:50:52.337Z,8.71
2023-05-24T01:53:23.224Z,8.72
2023-05-24T01:55:53.483Z,8.73
2023-05-24T01:58:23.851Z,8.78
2023-05-24T02:00:51.927Z,8.80
2023-05-24T02:03:19.957Z,8.84
2023-05-24T02:05:47.876Z,8.86
2023-05-24T02:08:14.664Z,8.90
2023-05-24T02:10:42.527Z,8.80
2023-05-24T02:13:11.872Z,8.95
2023-05-24T02:15:38.608Z,8.95
2023-05-24T02:18:08.368Z,8.95
2023-05-24T02:20:37.973Z,9.02
2023-05-24T02:23:04.846Z,9.02
2023-05-24T02:25:32.679Z,9.01
2023-05-24T02:27:59.779Z,9.02
2023-05-24T02:30:27.258Z,9.05
2023-05-24T02:32:53.944Z,9.09
2023-05-24T02:35:20.920Z,9.08
2023-05-24T02:37:48.110Z,9.01
2023-05-24T02:40:14.918Z,9.12
2023-05-24T02:42:41.890Z,9.14
2023-05-24T02:45:09.241Z,9.18
2023-05-24T02:47:36.022Z,9.16
2023-05-24T02:50:02.828Z,9.20
2023-05-24T02:52:29.688Z,9.21
2023-05-24T02:54:56.742Z,9.23
2023-05-24T02:57:23.416Z,9.21
2023-05-24T02:59:50.200Z,9.21
2023-05-24T03:02:18.107Z,9.23
2023-05-24T03:04:44.833Z,9.13
2023-05-24T03:07:11.585Z,9.28
2023-05-24T03:09:38.203Z,9.26
2023-05-24T03:12:05.795Z,9.26
2023-05-24T03:14:32.426Z,9.24
2023-05-24T03:16:59.202Z,9.20
2023-05-24T03:19:26.045Z,9.19
2023-05-24T03:21:52.658Z,9.18
2023-05-24T03:24:20.809Z,9.20
2023-05-24T03:26:47.599Z,9.20
2023-05-24T03:29:14.175Z,9.20
2023-05-24T03:31:41.905Z,9.09
2023-05-24T03:34:08.482Z,9.17
2023-05-24T03:36:35.117Z,9.17
2023-05-24T03:39:04.450Z,9.05
2023-05-24T03:41:31.341Z,9.09
2023-05-24T03:43:58.043Z,9.07
2023-05-24T03:46:24.841Z,8.94
2023-05-24T03:48:51.649Z,9.01
2023-05-24T03:51:18.374Z,9.02
2023-05-24T03:53:45.281Z,8.95
2023-05-24T03:56:12.592Z,8.98
2023-05-24T03:58:40.441Z,9.04
2023-05-24T04:01:07.117Z,9.08
2023-05-24T04:03:34.393Z,9.09
2023-05-24T04:06:01.573Z,9.08
2023-05-24T04:08:28.185Z,9.11
2023-05-24T04:10:54.834Z,9.11
2023-05-24T04:13:21.410Z,9.07
2023-05-24T04:15:48.058Z,9.17
2023-05-24T04:18:14.864Z,9.18
2023-05-24T04:20:41.994Z,9.17
2023-05-24T04:23:08.836Z,9.21
2023-05-24T04:25:35.570Z,9.26
2023-05-24T04:28:06.234Z,9.28
2023-05-24T04:30:32.927Z,9.26
2023-05-24T04:32:59.705Z,9.28
2023-05-24T04:35:26.331Z,9.32
2023-05-24T04:37:53.067Z,9.37
2023-05-24T04:40:23.050Z,9.40
2023-05-24T04:42:50.525Z,9.38
2023-05-24T04:45:17.321Z,9.41
2023-05-24T04:47:44.270Z,9.40
2023-05-24T04:50:17.046Z,9.45
2023-05-24T04:52:43.706Z,9.52
2023-05-24T04:55:11.009Z,9.51
2023-05-24T04:57:37.805Z,9.35
2023-05-24T05:00:05.284Z,9.44
2023-05-24T05:02:33.194Z,9.34
2023-05-24T05:04:59.913Z,9.39
2023-05-24T05:07:26.615Z,9.37
2023-05-24T05:09:53.297Z,9.41
2023-05-24T05:12:19.909Z,9.37
2023-05-24T05:14:46.550Z,9.38
2023-05-24T05:17:13.753Z,9.42
2023-05-24T05:19:41.159Z,9.48
2023-05-24T05:22:07.865Z,9.52
2023-05-24T05:24:34.804Z,9.60
2023-05-24T05:27:02.670Z,9.70
2023-05-24T05:29:29.370Z,9.54
2023-05-24T05:31:56.233Z,9.83
2023-05-24T05:34:22.897Z,9.69
2023-05-24T05:36:49.657Z,10.03
2023-05-24T05:39:16.510Z,10.03
2023-05-24T05:41:45.979Z,10.13
2023-05-24T05:44:13.717Z,10.28
2023-05-24T05:46:41.610Z,10.19
2023-05-24T05:49:11.481Z,10.36
2023-05-24T05:51:38.926Z,10.50
2023-05-24T05:54:06.236Z,10.60
2023-05-24T05:56:32.972Z,10.42
2023-05-24T05:58:59.742Z,10.77
2023-05-24T06:01:26.383Z,10.64
2023-05-24T06:03:55.073Z,10.79
2023-05-24T06:06:21.830Z,10.84
2023-05-24T06:08:48.489Z,10.84
2023-05-24T06:11:15.168Z,10.86
2023-05-24T06:13:41.862Z,10.91
2023-05-24T06:16:10.437Z,11.06
2023-05-24T06:18:37.494Z,11.17
2023-05-24T06:21:04.545Z,10.78
2023-05-24T06:23:32.503Z,10.88
2023-05-24T06:25:59.347Z,10.95
2023-05-24T06:28:26.225Z,11.01
2023-05-24T06:30:53.137Z,11.01
2023-05-24T06:33:19.894Z,10.95
2023-05-24T06:35:46.963Z,10.97
2023-05-24T06:38:13.692Z,10.84
2023-05-24T06:40:41.250Z,10.72
2023-05-24T06:43:08.139Z,10.71
2023-05-24T06:45:34.837Z,10.66
2023-05-24T06:48:01.692Z,10.65
2023-05-24T06:50:28.518Z,10.68
2023-05-24T06:52:55.331Z,10.78
2023-05-24T06:55:22.212Z,10.86
2023-05-24T06:57:48.988Z,10.98
2023-05-24T07:00:16.163Z,11.13
2023-05-24T07:02:42.847Z,11.25
2023-05-24T07:05:12.505Z,11.30
2023-05-24T07:07:42.446Z,11.17
2023-05-24T07:10:12.055Z,11.32
2023-05-24T07:12:38.850Z,11.31
2023-05-24T07:15:08.694Z,11.16
2023-05-24T07:17:37.522Z,11.03
2023-05-24T07:20:10.137Z,11.20
2023-05-24T07:22:37.293Z,11.15
2023-05-24T07:25:04.747Z,10.81
2023-05-24T07:27:31.541Z,11.13
2023-05-24T07:29:58.808Z,11.22
2023-05-24T07:32:25.599Z,11.01
2023-05-24T07:34:52.566Z,11.27
2023-05-24T07:37:19.233Z,11.39
2023-05-24T07:39:46.087Z,11.50
2023-05-24T07:42:12.779Z,11.74
2023-05-24T07:44:39.899Z,11.96
2023-05-24T07:47:06.832Z,12.18
2023-05-24T07:49:33.606Z,12.48
2023-05-24T07:52:00.346Z,12.48
2023-05-24T07:54:27.058Z,12.52
2023-05-24T07:56:53.827Z,12.42
2023-05-24T07:59:20.620Z,12.41
2023-05-24T08:01:47.842Z,12.36
2023-05-24T08:04:14.792Z,12.40
2023-05-24T08:06:42.155Z,12.38
2023-05-24T08:09:09.097Z,12.36
2023-05-24T08:11:35.877Z,12.47
2023-05-24T08:14:02.602Z,12.64
2023-05-24T08:16:29.493Z,12.86
2023-05-24T08:18:56.308Z,13.14
2023-05-24T08:21:23.592Z,13.16
2023-05-24T08:23:50.841Z,13.83
2023-05-24T08:26:19.398Z,14.32
2023-05-24T08:28:46.459Z,14.98
2023-05-24T08:31:13.303Z,14.96
2023-05-24T08:33:41.283Z,14.90
2023-05-24T08:36:08.051Z,15.13
2023-05-24T08:38:34.645Z,16.34
2023-05-24T08:41:07.198Z,16.76
2023-05-24T08:43:35.528Z,16.49
2023-05-24T08:46:03.543Z,16.32
2023-05-24T08:48:31.745Z,16.32
2023-05-24T08:50:59.506Z,15.94
2023-05-24T08:53:27.013Z,15.63
2023-05-24T08:55:55.962Z,15.49
2023-05-24T08:58:22.887Z,15.33
2023-05-24T09:00:49.578Z,15.38
2023-05-24T09:03:17.728Z,15.76
2023-05-24T09:05:45.335Z,16.93
2023-05-24T09:08:13.559Z,16.86
2023-05-24T09:10:52.780Z,16.57
2023-05-24T09:13:20.592Z,15.98
2023-05-24T09:15:47.339Z,15.67
2023-05-24T09:18:14.132Z,15.16
2023-05-24T09:20:44.178Z,14.96
2023-05-24T09:23:15.510Z,14.76
2023-05-24T09:25:46.548Z,14.62
2023-05-24T09:28:16.377Z,14.52
2023-05-24T09:30:57.347Z,14.41
2023-05-24T09:33:24.006Z,14.48
2023-05-24T09:35:50.609Z,14.55
2023-05-24T09:38:18.952Z,14.72
2023-05-24T09:40:46.828Z,14.89
2023-05-24T09:43:14.636Z,15.21
2023-05-24T09:45:44.480Z,15.30
2023-05-24T09:48:15.462Z,15.42
2023-05-24T09:50:42.553Z,15.51
2023-05-24T09:53:11.011Z,15.55
2023-05-24T09:55:38.015Z,15.42
2023-05-24T09:58:12.829Z,15.54
2023-05-24T10:00:43.978Z,15.47
2023-05-24T10:03:12.990Z,15.60
2023-05-24T10:05:44.581Z,16.63
2023-05-24T10:08:14.525Z,16.66
2023-05-24T10:10:42.384Z,16.22
2023-05-24T10:13:10.245Z,15.63
2023-05-24T10:15:36.963Z,15.20
2023-05-24T10:18:10.653Z,15.22
2023-05-24T10:20:38.076Z,15.28
2023-05-24T10:23:12.557Z,15.55
2023-05-24T10:25:44.988Z,15.86
2023-05-24T10:28:15.094Z,15.98
2023-05-24T10:30:53.596Z,15.88
2023-05-24T10:33:23.292Z,15.88
2023-05-24T10:35:51.275Z,16.04
2023-05-24T10:38:22.167Z,16.08
2023-05-24T10:40:49.124Z,16.63
2023-05-24T10:43:17.601Z,16.85
2023-05-24T10:45:49.411Z,17.36
2023-05-24T10:48:17.030Z,17.53
2023-05-24T10:50:44.980Z,17.97
2023-05-24T10:53:15.893Z,18.32
2023-05-24T10:55:59.822Z,18.30
2023-05-24T10:58:32.992Z,18.38
2023-05-24T11:01:00.229Z,18.59
2023-05-24T11:03:33.272Z,19.00
2023-05-24T11:06:00.369Z,19.50
2023-05-24T11:08:33.370Z,19.85
2023-05-24T11:13:43.187Z,19.14
2023-05-24T11:16:12.879Z,18.50
2023-05-24T11:18:40.289Z,18.17
2023-05-24T11:21:08.077Z,18.12
2023-05-24T11:23:38.295Z,18.56
2023-05-24T11:26:07.327Z,19.02
2023-05-24T11:28:37.739Z,19.53
2023-05-24T11:31:10.373Z,19.82
2023-05-24T11:33:42.688Z,19.99
2023-05-24T11:36:11.165Z,20.14
2023-05-24T11:38:37.945Z,20.09
2023-05-24T11:41:05.347Z,20.39
2023-05-24T11:43:32.173Z,19.46
2023-05-24T11:45:58.941Z,18.51
2023-05-24T11:48:26.218Z,18.18
2023-05-24T11:50:53.215Z,18.29
2023-05-24T11:53:21.220Z,18.97
2023-05-24T11:55:48.815Z,19.01
2023-05-24T11:58:32.780Z,18.32
2023-05-24T12:00:59.805Z,17.92
2023-05-24T12:03:26.532Z,18.00
2023-05-24T12:05:57.330Z,18.18
2023-05-24T12:08:24.024Z,18.38
2023-05-24T12:10:51.795Z,18.83
2023-05-24T12:13:25.316Z,19.10
2023-05-24T12:15:56.339Z,19.39
2023-05-24T12:18:26.148Z,19.69
2023-05-24T12:20:53.370Z,19.74
2023-05-24T12:23:23.361Z,19.48
2023-05-24T12:25:50.565Z,19.47
2023-05-24T12:28:21.849Z,18.97
2023-05-24T12:30:50.075Z,18.48
2023-05-24T12:33:19.222Z,17.86
2023-05-24T12:35:47.290Z,18.38
2023-05-24T12:38:13.941Z,18.91
2023-05-24T12:40:44.633Z,19.44
2023-05-24T12:43:16.156Z,19.58
2023-05-24T12:45:43.048Z,19.53
2023-05-24T12:48:10.937Z,19.56
2023-05-24T12:50:37.666Z,19.49
2023-05-24T12:53:04.766Z,19.17
2023-05-24T12:55:31.546Z,18.82
2023-05-24T12:57:58.848Z,18.48
2023-05-24T13:00:27.478Z,18.75
2023-05-24T13:02:56.904Z,19.14
2023-05-24T13:05:24.325Z,19.57
2023-05-24T13:07:54.636Z,20.13
2023-05-24T13:10:21.336Z,20.49
2023-05-24T13:12:48.176Z,20.58
2023-05-24T13:15:15.190Z,20.25
2023-05-24T13:17:42.835Z,20.15
2023-05-24T13:20:11.540Z,20.18
2023-05-24T13:22:41.859Z,20.25
2023-05-24T13:25:12.407Z,20.09
2023-05-24T13:27:39.269Z,20.10
2023-05-24T13:30:07.275Z,20.00
2023-05-24T13:32:34.285Z,19.81
2023-05-24T13:35:02.165Z,19.78
2023-05-24T13:37:30.002Z,19.79
2023-05-24T13:39:56.722Z,19.73
2023-05-24T13:42:23.472Z,19.90
2023-05-24T13:44:50.313Z,19.72
2023-05-24T13:47:31.062Z,19.67
2023-05-24T13:50:06.479Z,19.82
2023-05-24T13:52:37.993Z,20.23
2023-05-24T13:55:12.209Z,20.14
2023-05-24T13:57:50.996Z,20.24
2023-05-24T14:00:19.382Z,20.00
2023-05-24T14:02:47.016Z,20.28
2023-05-24T14:05:26.794Z,20.37
2023-05-24T14:07:55.799Z,20.28
2023-05-24T14:10:22.603Z,20.38
2023-05-24T14:13:03.344Z,20.70
2023-05-24T14:15:36.645Z,20.24
2023-05-24T14:18:07.808Z,20.09
2023-05-24T14:20:40.740Z,20.10
2023-05-24T14:23:08.623Z,20.30
2023-05-24T14:25:36.152Z,20.35
2023-05-24T14:28:03.917Z,20.37
2023-05-24T14:30:33.926Z,20.71
2023-05-24T14:33:03.387Z,20.75
2023-05-24T14:35:30.786Z,20.85
2023-05-24T14:37:57.572Z,20.65
2023-05-24T14:40:24.336Z,20.68
2023-05-24T14:42:51.364Z,20.61
2023-05-24T14:45:18.101Z,20.51
2023-05-24T14:47:44.837Z,20.31
2023-05-24T14:50:11.781Z,19.86
2023-05-24T14:52:38.717Z,19.19
2023-05-24T14:55:05.923Z,19.25
2023-05-24T14:57:32.725Z,19.13
2023-05-24T14:59:59.665Z,19.20
2023-05-24T15:02:26.599Z,19.34
2023-05-24T15:04:53.514Z,19.57
2023-05-24T15:07:20.316Z,19.83
2023-05-24T15:09:47.004Z,20.13
2023-05-24T15:12:13.674Z,20.27
2023-05-24T15:14:40.706Z,20.29
2023-05-24T15:17:07.527Z,20.40
2023-05-24T15:19:34.450Z,20.27
2023-05-24T15:22:01.205Z,20.33
2023-05-24T15:24:27.969Z,20.36
2023-05-24T15:26:54.636Z,20.26
2023-05-24T15:29:21.601Z,20.41
2023-05-24T15:31:48.440Z,20.29
2023-05-24T15:34:15.109Z,20.53
2023-05-24T15:36:41.997Z,20.29
2023-05-24T15:39:08.703Z,19.90
2023-05-24T15:41:45.082Z,19.96
2023-05-24T15:44:16.675Z,19.80
2023-05-24T15:46:46.071Z,19.51
2023-05-24T15:49:13.307Z,19.18
2023-05-24T15:52:11.434Z,19.82
2023-05-24T15:54:49.276Z,20.06
2023-05-24T15:57:19.568Z,19.99
2023-05-24T15:59:59.505Z,20.25
2023-05-24T16:02:27.252Z,20.23
2023-05-24T16:04:58.045Z,20.06
2023-05-24T16:07:24.745Z,20.10
2023-05-24T16:09:56.945Z,20.14
2023-05-24T16:12:33.592Z,20.05
2023-05-24T16:15:20.480Z,20.16
2023-05-24T16:18:00.072Z,20.12
2023-05-24T16:20:37.064Z,19.83
2023-05-24T16:23:28.744Z,20.01
2023-05-24T16:25:56.671Z,19.98
2023-05-24T16:28:34.376Z,19.66
2023-05-24T16:31:06.474Z,19.67
2023-05-24T16:33:40.151Z,19.74
2023-05-24T16:36:14.862Z,19.91
2023-05-24T16:38:45.181Z,19.64
2023-05-24T16:41:19.423Z,19.56
2023-05-24T16:43:52.965Z,19.36
2023-05-24T16:46:28.518Z,18.99
2023-05-24T16:48:58.705Z,18.61
2023-05-24T16:51:35.487Z,18.70
2023-05-24T16:54:12.551Z,18.54
2023-05-24T16:56:51.680Z,18.41
2023-05-24T16:59:28.621Z,18.27
2023-05-24T17:02:02.651Z,18.28
2023-05-24T17:04:33.953Z,18.30
2023-05-24T17:07:03.984Z,18.45
2023-05-24T17:10:00.206Z,18.27
2023-05-24T17:12:29.239Z,18.12
2023-05-24T17:15:00.294Z,17.95
2023-05-24T17:17:35.769Z,18.00
2023-05-24T17:20:14.731Z,18.01
2023-05-24T17:22:47.316Z,17.95
2023-05-24T17:25:16.951Z,17.99
2023-05-24T17:27:44.135Z,17.90
2023-05-24T17:30:17.344Z,17.68
2023-05-24T17:32:44.602Z,17.48
2023-05-24T17:35:20.431Z,17.45
2023-05-24T17:37:48.726Z,17.40
2023-05-24T17:40:16.223Z,17.04
2023-05-24T17:42:43.694Z,17.33
2023-05-24T17:45:13.467Z,17.25
2023-05-24T17:47:44.151Z,17.12
2023-05-24T17:50:13.906Z,16.74
2023-05-24T17:52:50.813Z,16.32
2023-05-24T17:55:21.798Z,16.33
2023-05-24T17:57:55.319Z,16.26
2023-05-24T18:00:25.439Z,16.17
2023-05-24T18:03:01.462Z,15.89
2023-05-24T18:05:35.540Z,15.62
2023-05-24T18:08:05.573Z,15.24
2023-05-24T18:10:43.112Z,14.98
2023-05-24T18:13:13.118Z,14.58
2023-05-24T18:15:41.467Z,14.47
2023-05-24T18:18:20.555Z,14.28
2023-05-24T18:20:55.403Z,14.21
2023-05-24T18:23:22.967Z,14.11
2023-05-24T18:26:01.406Z,14.17
2023-05-24T18:28:33.031Z,14.21
2023-05-24T18:31:28.659Z,14.24
2023-05-24T18:34:01.504Z,14.01
2023-05-24T18:36:29.846Z,13.95
2023-05-24T18:38:57.282Z,13.86
2023-05-24T18:41:24.380Z,13.74
2023-05-24T18:43:53.970Z,13.60
2023-05-24T18:46:21.299Z,13.32
2023-05-24T18:48:53.903Z,13.37
2023-05-24T18:51:21.232Z,13.20
2023-05-24T18:53:51.897Z,12.99
2023-05-24T18:56:22.680Z,12.49
2023-05-24T18:59:01.427Z,12.49
2023-05-24T19:01:31.709Z,12.25
2023-05-24T19:04:02.780Z,12.08
2023-05-24T19:06:33.046Z,11.88
2023-05-24T19:09:03.221Z,11.58
2023-05-24T19:11:31.088Z,11.71
2023-05-24T19:13:58.144Z,11.63
2023-05-24T19:16:35.611Z,11.63
2023-05-24T19:19:04.017Z,11.50
2023-05-24T19:21:35.248Z,11.51
2023-05-24T19:24:02.377Z,11.38
2023-05-24T19:26:30.715Z,11.14
2023-05-24T19:28:58.334Z,10.93
2023-05-24T19:31:25.710Z,10.70
2023-05-24T19:36:26.026Z,10.23
2023-05-24T19:38:52.729Z,10.11
2023-05-24T19:41:19.377Z,9.96
2023-05-24T19:43:46.034Z,9.68
2023-05-24T19:46:14.747Z,9.80
2023-05-24T19:48:44.608Z,9.78
2023-05-24T19:51:15.742Z,9.62
2023-05-24T19:53:43.986Z,9.47
2023-05-24T19:56:11.916Z,9.57
2023-05-24T19:58:38.930Z,9.53
2023-05-24T20:01:05.820Z,9.38
2023-05-24T20:03:32.752Z,9.29
2023-05-24T20:05:59.663Z,9.20
2023-05-24T20:08:26.516Z,9.12
2023-05-24T20:10:53.285Z,8.99
2023-05-24T20:13:21.701Z,8.90
2023-05-24T20:15:48.276Z,8.79
2023-05-24T20:18:14.888Z,8.75
2023-05-24T20:20:43.127Z,8.69
2023-05-24T20:23:12.060Z,8.68
2023-05-24T20:25:41.982Z,8.55
2023-05-24T20:28:26.021Z,8.60
2023-05-24T20:30:56.584Z,8.55
2023-05-24T20:33:23.833Z,8.53
2023-05-24T20:35:53.146Z,8.50
2023-05-24T20:38:20.472Z,8.57
2023-05-24T20:40:47.161Z,8.48
2023-05-24T20:43:13.970Z,8.43
2023-05-24T20:45:42.583Z,8.43
2023-05-24T20:48:09.538Z,8.49
2023-05-24T20:50:38.367Z,8.33
2023-05-24T20:53:05.033Z,8.25
2023-05-24T20:55:31.711Z,8.18
2023-05-24T20:57:58.410Z,8.10
2023-05-24T21:00:25.632Z,7.95
2023-05-24T21:02:52.370Z,7.95
2023-05-24T21:05:19.186Z,8.03
2023-05-24T21:07:46.019Z,7.87
2023-05-24T21:10:17.688Z,7.76
2023-05-24T21:12:44.798Z,7.66
2023-05-24T21:15:12.590Z,7.58
2023-05-24T21:17:39.529Z,7.58
2023-05-24T21:20:07.646Z,7.72
2023-05-24T21:22:34.369Z,7.71
2023-05-24T21:25:01.376Z,7.56
2023-05-24T21:27:28.194Z,7.44
2023-05-24T21:29:54.901Z,7.36
2023-05-24T21:32:21.715Z,7.24
2023-05-24T21:34:49.904Z,7.09
2023-05-24T21:37:17.495Z,7.20
2023-05-24T21:39:44.424Z,7.28
2023-05-24T21:42:12.233Z,7.33
2023-05-24T21:44:39.066Z,7.37
2023-05-24T21:47:05.770Z,7.27
2023-05-24T21:49:32.545Z,7.35
2023-05-24T21:51:59.215Z,7.31
2023-05-24T21:54:25.845Z,7.32
2023-05-24T21:56:52.878Z,7.36
2023-05-24T21:59:21.399Z,7.46
2023-05-24T22:01:48.809Z,7.33
2023-05-24T22:04:15.792Z,7.74
2023-05-24T22:06:44.847Z,7.88
2023-05-24T22:09:13.719Z,7.95
2023-05-24T22:11:41.870Z,8.12
2023-05-24T22:14:08.587Z,8.25
2023-05-24T22:16:36.087Z,8.13
2023-05-24T22:19:03.823Z,8.31
2023-05-24T22:21:33.552Z,8.27
2023-05-24T22:24:00.673Z,8.33
2023-05-24T22:26:28.008Z,8.36
2023-05-24T22:29:00.436Z,8.45
2023-05-24T22:31:31.067Z,8.46
2023-05-24T22:34:01.189Z,8.45
2023-05-24T22:36:34.669Z,8.55
2023-05-24T22:39:02.074Z,8.56
2023-05-24T22:41:28.754Z,8.58
2023-05-24T22:43:56.986Z,8.65
2023-05-24T22:46:23.740Z,8.55
2023-05-24T22:48:53.756Z,8.42
2023-05-24T22:51:20.651Z,8.26
2023-05-24T22:53:48.359Z,8.14
2023-05-24T22:56:15.139Z,8.07
2023-05-24T22:58:41.884Z,7.95
2023-05-24T23:01:08.730Z,7.78
2023-05-24T23:03:35.720Z,7.95
2023-05-24T23:06:04.567Z,8.10
2023-05-24T23:08:32.236Z,8.31
2023-05-24T23:10:59.722Z,8.62
2023-05-24T23:13:28.146Z,9.00
2023-05-24T23:15:58.654Z,9.40
2023-05-24T23:18:26.563Z,9.63
2023-05-24T23:20:56.520Z,10.25
2023-05-24T23:23:24.855Z,10.50
2023-05-24T23:25:51.942Z,10.68
2023-05-24T23:28:18.837Z,10.84
2023-05-24T23:30:46.082Z,10.95
2023-05-24T23:33:13.174Z,11.06
2023-05-24T23:35:41.097Z,11.16
2023-05-24T23:38:07.900Z,11.24
2023-05-24T23:40:36.450Z,11.28
2023-05-24T23:43:04.202Z,11.32
2023-05-24T23:45:31.397Z,11.35
2023-05-24T23:47:58.863Z,11.38
2023-05-24T23:50:27.408Z,11.40
2023-05-24T23:52:54.513Z,11.37
2023-05-24T23:55:25.049Z,11.40
2023-05-24T23:57:52.191Z,11.38
